Airfield :
LOGIN :

Register | Disclaimer

   EN    FR    IT 

 










Legend :    VFR   Marginal VFR   IFR   Intensive IFR   Very Intensive IFR
Visi :
Ceiling :
>= 8 km
>= 3000ft
5 to 8 km
1000 to 3000 ft
1500m to 5 km
500 to 1000 ft
800 to 1500m
200 to 500 ft
< 800m
< 200 ft
Symbols :   Thunderstorms  Fog  Heavy snow  Heavy precipitations  Wind > 20 kt
SIGMETs :     Misc.  Thunderstorms  Icing  Turbulence  Mountain Waves  Volcanic Ashes







- Airport Elevation : 290 ft
- IATA code : ACI
- Download approach charts


EGJA - Alderney

CURRENT METAR :
  • 200920Z 07013KT 6000 BKN006 12/// Q1022

EXPIRED METARs :
  • 200850Z 07012KT 6000 BKN005 11/// Q1022
  • 200820Z 08013KT 6000 BKN004 11/// Q1022
  • 200750Z 07014KT 5000 BR BKN004 11/// Q1022
  • 200720Z 18012KT 5000 BR BKN004 11/// Q1022
  • 200650Z 08012KT 5000 BR BKN003 10/// Q1022

TAF TAF EGJA
Valid from the 20 at 09:00 until the 20 at 18:00 UTC


200801Z 2009/2018 07011KT 5000 BR BKN005
PROB30
TEMPO 2009/2011 1200 VCFG BKN001
BECMG 2011/2013 9999 NSW SCT005
No reported NOTAMs for that airfield.



MET'MAP, your aeronautical weather chart ! - Copyright ORBIFLY December 2007 - Disclaimer

ORBIFLY MET'MAP TEAM :

Programming & Development : Alexandra Zaïnal
Concept & Development : Baudouin d'Aumeries
Co-Development & Prog : Marc-Olivier Méhu
Technical & hardware support : Manuel Goepfert

Contact : metmap@orbifly.com




SOURCES & CREDITS :

   NOAA